sensor_id;sensor_type;location;lat;lon;timestamp;P1;durP1;ratioP1;P2;durP2;ratioP2
28311;SDS011;15572;48.810;9.148;2024-03-08T00:03:32;33.00;;;19.17;;
28311;SDS011;15572;48.810;9.148;2024-03-08T00:08:29;31.50;;;18.00;;
28311;SDS011;15572;48.810;9.148;2024-03-08T00:13:26;33.40;;;19.43;;
28311;SDS011;15572;48.810;9.148;2024-03-08T00:18:23;35.83;;;19.33;;
28311;SDS011;15572;48.810;9.148;2024-03-08T00:23:20;40.20;;;20.30;;
28311;SDS011;15572;48.810;9.148;2024-03-08T00:28:18;32.90;;;19.03;;
28311;SDS011;15572;48.810;9.148;2024-03-08T00:33:14;35.80;;;19.10;;
28311;SDS011;15572;48.810;9.148;2024-03-08T00:38:11;30.37;;;18.57;;
28311;SDS011;15572;48.810;9.148;2024-03-08T00:43:09;33.23;;;18.87;;
28311;SDS011;15572;48.810;9.148;2024-03-08T00:48:06;30.73;;;18.23;;
28311;SDS011;15572;48.810;9.148;2024-03-08T00:53:02;31.50;;;19.10;;
28311;SDS011;15572;48.810;9.148;2024-03-08T00:58:00;32.40;;;18.33;;
28311;SDS011;15572;48.810;9.148;2024-03-08T01:02:58;34.87;;;19.03;;
28311;SDS011;15572;48.810;9.148;2024-03-08T01:07:55;31.53;;;18.37;;
28311;SDS011;15572;48.810;9.148;2024-03-08T01:12:51;29.50;;;17.87;;
28311;SDS011;15572;48.810;9.148;2024-03-08T01:17:49;34.30;;;18.67;;
28311;SDS011;15572;48.810;9.148;2024-03-08T01:22:47;34.13;;;18.77;;
28311;SDS011;15572;48.810;9.148;2024-03-08T01:27:44;31.20;;;17.77;;
28311;SDS011;15572;48.810;9.148;2024-03-08T01:32:40;32.10;;;18.57;;
28311;SDS011;15572;48.810;9.148;2024-03-08T01:37:39;31.03;;;17.87;;
28311;SDS011;15572;48.810;9.148;2024-03-08T01:42:36;31.87;;;17.73;;
28311;SDS011;15572;48.810;9.148;2024-03-08T01:47:33;31.13;;;17.53;;
28311;SDS011;15572;48.810;9.148;2024-03-08T01:52:30;29.60;;;17.87;;
28311;SDS011;15572;48.810;9.148;2024-03-08T01:57:27;32.70;;;17.80;;
28311;SDS011;15572;48.810;9.148;2024-03-08T02:02:26;27.97;;;17.30;;
28311;SDS011;15572;48.810;9.148;2024-03-08T02:07:22;38.97;;;19.53;;
28311;SDS011;15572;48.810;9.148;2024-03-08T02:12:19;33.40;;;17.93;;
28311;SDS011;15572;48.810;9.148;2024-03-08T02:17:16;33.20;;;18.67;;
28311;SDS011;15572;48.810;9.148;2024-03-08T02:22:14;32.17;;;18.07;;
28311;SDS011;15572;48.810;9.148;2024-03-08T02:27:10;30.13;;;17.10;;
28311;SDS011;15572;48.810;9.148;2024-03-08T02:32:07;32.17;;;18.43;;
28311;SDS011;15572;48.810;9.148;2024-03-08T02:37:03;28.93;;;17.10;;
28311;SDS011;15572;48.810;9.148;2024-03-08T02:42:01;32.23;;;17.93;;
28311;SDS011;15572;48.810;9.148;2024-03-08T02:46:58;32.23;;;17.43;;
28311;SDS011;15572;48.810;9.148;2024-03-08T02:51:54;31.53;;;17.60;;
28311;SDS011;15572;48.810;9.148;2024-03-08T02:56:52;31.33;;;17.27;;
28311;SDS011;15572;48.810;9.148;2024-03-08T03:01:49;35.43;;;18.20;;
28311;SDS011;15572;48.810;9.148;2024-03-08T03:06:46;30.67;;;16.47;;
28311;SDS011;15572;48.810;9.148;2024-03-08T03:11:43;31.47;;;17.23;;
28311;SDS011;15572;48.810;9.148;2024-03-08T03:16:40;30.27;;;17.37;;
28311;SDS011;15572;48.810;9.148;2024-03-08T03:21:40;34.23;;;17.43;;
28311;SDS011;15572;48.810;9.148;2024-03-08T03:26:38;36.80;;;18.80;;
28311;SDS011;15572;48.810;9.148;2024-03-08T03:31:35;31.93;;;17.00;;
28311;SDS011;15572;48.810;9.148;2024-03-08T03:36:32;32.73;;;17.60;;
28311;SDS011;15572;48.810;9.148;2024-03-08T03:41:31;31.93;;;17.60;;
28311;SDS011;15572;48.810;9.148;2024-03-08T03:46:27;32.43;;;17.17;;
28311;SDS011;15572;48.810;9.148;2024-03-08T03:51:24;31.10;;;16.40;;
28311;SDS011;15572;48.810;9.148;2024-03-08T03:56:24;31.27;;;15.97;;
28311;SDS011;15572;48.810;9.148;2024-03-08T04:01:22;29.67;;;16.27;;
28311;SDS011;15572;48.810;9.148;2024-03-08T04:06:19;32.30;;;17.33;;
28311;SDS011;15572;48.810;9.148;2024-03-08T04:11:15;30.87;;;16.27;;
28311;SDS011;15572;48.810;9.148;2024-03-08T04:16:12;29.93;;;16.90;;
28311;SDS011;15572;48.810;9.148;2024-03-08T04:21:09;29.87;;;16.63;;
28311;SDS011;15572;48.810;9.148;2024-03-08T04:26:06;31.37;;;17.70;;
28311;SDS011;15572;48.810;9.148;2024-03-08T04:31:04;30.67;;;17.37;;
28311;SDS011;15572;48.810;9.148;2024-03-08T04:36:01;33.50;;;17.43;;
28311;SDS011;15572;48.810;9.148;2024-03-08T04:41:00;31.77;;;17.00;;
28311;SDS011;15572;48.810;9.148;2024-03-08T04:45:57;32.80;;;17.13;;
28311;SDS011;15572;48.810;9.148;2024-03-08T04:50:53;33.53;;;17.80;;
28311;SDS011;15572;48.810;9.148;2024-03-08T04:55:50;34.27;;;17.87;;
28311;SDS011;15572;48.810;9.148;2024-03-08T05:00:48;37.20;;;18.30;;
28311;SDS011;15572;48.810;9.148;2024-03-08T05:05:45;32.13;;;19.17;;
28311;SDS011;15572;48.810;9.148;2024-03-08T05:10:42;33.33;;;18.27;;
28311;SDS011;15572;48.810;9.148;2024-03-08T05:15:38;34.80;;;18.80;;
28311;SDS011;15572;48.810;9.148;2024-03-08T05:20:36;37.90;;;18.83;;
28311;SDS011;15572;48.810;9.148;2024-03-08T05:25:32;35.20;;;18.73;;
28311;SDS011;15572;48.810;9.148;2024-03-08T05:30:29;32.40;;;17.87;;
28311;SDS011;15572;48.810;9.148;2024-03-08T05:35:26;34.87;;;18.67;;
28311;SDS011;15572;48.810;9.148;2024-03-08T05:40:24;31.87;;;17.90;;
28311;SDS011;15572;48.810;9.148;2024-03-08T05:45:21;35.90;;;18.37;;
28311;SDS011;15572;48.810;9.148;2024-03-08T05:50:17;36.13;;;19.23;;
28311;SDS011;15572;48.810;9.148;2024-03-08T05:55:14;33.57;;;19.07;;
28311;SDS011;15572;48.810;9.148;2024-03-08T06:00:12;34.70;;;19.03;;
28311;SDS011;15572;48.810;9.148;2024-03-08T06:05:10;37.60;;;19.73;;
28311;SDS011;15572;48.810;9.148;2024-03-08T06:10:07;32.03;;;18.33;;
28311;SDS011;15572;48.810;9.148;2024-03-08T06:15:07;33.33;;;18.77;;
28311;SDS011;15572;48.810;9.148;2024-03-08T06:20:06;33.73;;;19.70;;
28311;SDS011;15572;48.810;9.148;2024-03-08T06:25:08;39.20;;;19.47;;
28311;SDS011;15572;48.810;9.148;2024-03-08T06:30:06;38.87;;;19.60;;
28311;SDS011;15572;48.810;9.148;2024-03-08T06:35:06;37.03;;;20.30;;
28311;SDS011;15572;48.810;9.148;2024-03-08T06:40:05;37.07;;;19.43;;
28311;SDS011;15572;48.810;9.148;2024-03-08T06:45:05;37.80;;;19.53;;
28311;SDS011;15572;48.810;9.148;2024-03-08T06:50:06;34.90;;;19.20;;
28311;SDS011;15572;48.810;9.148;2024-03-08T06:55:03;37.07;;;19.60;;
28311;SDS011;15572;48.810;9.148;2024-03-08T07:00:00;38.57;;;20.40;;
28311;SDS011;15572;48.810;9.148;2024-03-08T07:04:57;40.03;;;20.53;;
28311;SDS011;15572;48.810;9.148;2024-03-08T07:09:55;39.37;;;20.47;;
28311;SDS011;15572;48.810;9.148;2024-03-08T07:14:51;34.60;;;20.17;;
28311;SDS011;15572;48.810;9.148;2024-03-08T07:19:48;35.47;;;20.60;;
28311;SDS011;15572;48.810;9.148;2024-03-08T07:24:45;32.07;;;19.37;;
28311;SDS011;15572;48.810;9.148;2024-03-08T07:30:00;35.30;;;20.53;;
28311;SDS011;15572;48.810;9.148;2024-03-08T07:34:57;30.97;;;19.17;;
28311;SDS011;15572;48.810;9.148;2024-03-08T07:39:53;33.87;;;19.63;;
28311;SDS011;15572;48.810;9.148;2024-03-08T07:44:50;31.97;;;17.90;;
28311;SDS011;15572;48.810;9.148;2024-03-08T07:49:49;31.93;;;18.50;;
28311;SDS011;15572;48.810;9.148;2024-03-08T07:54:45;31.60;;;18.90;;
28311;SDS011;15572;48.810;9.148;2024-03-08T07:59:41;30.67;;;18.27;;
28311;SDS011;15572;48.810;9.148;2024-03-08T08:04:38;30.33;;;18.07;;
28311;SDS011;15572;48.810;9.148;2024-03-08T08:09:36;30.60;;;18.03;;
28311;SDS011;15572;48.810;9.148;2024-03-08T08:14:32;30.87;;;18.27;;
28311;SDS011;15572;48.810;9.148;2024-03-08T08:19:29;30.50;;;17.50;;
28311;SDS011;15572;48.810;9.148;2024-03-08T08:24:26;29.10;;;17.83;;
28311;SDS011;15572;48.810;9.148;2024-03-08T08:29:25;28.17;;;16.97;;
28311;SDS011;15572;48.810;9.148;2024-03-08T08:34:22;31.97;;;17.73;;
28311;SDS011;15572;48.810;9.148;2024-03-08T08:39:19;31.70;;;18.00;;
28311;SDS011;15572;48.810;9.148;2024-03-08T08:44:17;29.67;;;16.97;;
28311;SDS011;15572;48.810;9.148;2024-03-08T08:49:15;28.27;;;16.60;;
28311;SDS011;15572;48.810;9.148;2024-03-08T08:54:15;31.10;;;18.40;;
28311;SDS011;15572;48.810;9.148;2024-03-08T08:59:12;29.30;;;16.80;;
28311;SDS011;15572;48.810;9.148;2024-03-08T09:04:08;27.87;;;17.30;;
28311;SDS011;15572;48.810;9.148;2024-03-08T09:09:08;28.90;;;16.83;;
28311;SDS011;15572;48.810;9.148;2024-03-08T09:14:06;31.93;;;17.90;;
28311;SDS011;15572;48.810;9.148;2024-03-08T09:19:02;30.47;;;17.90;;
28311;SDS011;15572;48.810;9.148;2024-03-08T09:23:58;30.83;;;16.90;;
28311;SDS011;15572;48.810;9.148;2024-03-08T09:28:56;29.53;;;17.20;;
28311;SDS011;15572;48.810;9.148;2024-03-08T09:33:52;30.03;;;17.23;;
28311;SDS011;15572;48.810;9.148;2024-03-08T09:38:49;27.77;;;16.33;;
28311;SDS011;15572;48.810;9.148;2024-03-08T09:43:46;27.30;;;17.20;;
28311;SDS011;15572;48.810;9.148;2024-03-08T09:48:44;27.43;;;16.13;;
28311;SDS011;15572;48.810;9.148;2024-03-08T09:53:41;27.57;;;16.23;;
28311;SDS011;15572;48.810;9.148;2024-03-08T09:58:38;26.50;;;17.00;;
28311;SDS011;15572;48.810;9.148;2024-03-08T10:03:50;29.17;;;16.53;;
28311;SDS011;15572;48.810;9.148;2024-03-08T10:08:50;27.37;;;16.57;;
28311;SDS011;15572;48.810;9.148;2024-03-08T10:13:47;25.40;;;15.97;;
28311;SDS011;15572;48.810;9.148;2024-03-08T10:18:44;30.17;;;17.27;;
28311;SDS011;15572;48.810;9.148;2024-03-08T10:23:42;27.30;;;16.13;;
28311;SDS011;15572;48.810;9.148;2024-03-08T10:28:39;28.37;;;16.80;;
28311;SDS011;15572;48.810;9.148;2024-03-08T10:33:35;28.13;;;16.20;;
28311;SDS011;15572;48.810;9.148;2024-03-08T10:38:33;25.87;;;15.27;;
28311;SDS011;15572;48.810;9.148;2024-03-08T10:43:38;25.77;;;15.80;;
28311;SDS011;15572;48.810;9.148;2024-03-08T10:48:46;25.37;;;15.33;;
28311;SDS011;15572;48.810;9.148;2024-03-08T10:53:45;25.87;;;15.70;;
28311;SDS011;15572;48.810;9.148;2024-03-08T10:58:45;26.37;;;15.63;;
28311;SDS011;15572;48.810;9.148;2024-03-08T11:03:46;25.00;;;15.27;;
28311;SDS011;15572;48.810;9.148;2024-03-08T11:08:48;23.77;;;15.23;;
28311;SDS011;15572;48.810;9.148;2024-03-08T11:13:47;26.80;;;14.57;;
28311;SDS011;15572;48.810;9.148;2024-03-08T11:18:43;24.50;;;15.70;;
28311;SDS011;15572;48.810;9.148;2024-03-08T11:23:40;25.13;;;14.73;;
28311;SDS011;15572;48.810;9.148;2024-03-08T11:28:36;24.53;;;15.37;;
28311;SDS011;15572;48.810;9.148;2024-03-08T11:33:35;24.13;;;15.43;;
28311;SDS011;15572;48.810;9.148;2024-03-08T11:38:32;25.73;;;16.00;;
28311;SDS011;15572;48.810;9.148;2024-03-08T11:43:29;24.93;;;14.87;;
28311;SDS011;15572;48.810;9.148;2024-03-08T11:48:25;24.17;;;15.37;;
28311;SDS011;15572;48.810;9.148;2024-03-08T11:53:23;23.80;;;16.07;;
28311;SDS011;15572;48.810;9.148;2024-03-08T11:58:19;27.37;;;16.07;;
28311;SDS011;15572;48.810;9.148;2024-03-08T12:03:16;24.47;;;15.93;;
28311;SDS011;15572;48.810;9.148;2024-03-08T12:08:13;29.43;;;16.50;;
28311;SDS011;15572;48.810;9.148;2024-03-08T12:13:11;27.00;;;16.20;;
28311;SDS011;15572;48.810;9.148;2024-03-08T12:18:09;27.60;;;17.00;;
28311;SDS011;15572;48.810;9.148;2024-03-08T12:23:08;25.50;;;15.93;;
28311;SDS011;15572;48.810;9.148;2024-03-08T12:28:12;27.00;;;15.93;;
28311;SDS011;15572;48.810;9.148;2024-03-08T12:33:09;27.03;;;16.37;;
28311;SDS011;15572;48.810;9.148;2024-03-08T12:38:07;27.63;;;15.97;;
28311;SDS011;15572;48.810;9.148;2024-03-08T12:43:04;25.83;;;16.67;;
28311;SDS011;15572;48.810;9.148;2024-03-08T12:48:03;27.97;;;17.50;;
28311;SDS011;15572;48.810;9.148;2024-03-08T12:53:10;29.53;;;17.23;;
28311;SDS011;15572;48.810;9.148;2024-03-08T12:58:06;28.53;;;17.10;;
28311;SDS011;15572;48.810;9.148;2024-03-08T13:03:04;29.20;;;17.27;;
28311;SDS011;15572;48.810;9.148;2024-03-08T13:08:01;28.70;;;16.77;;
28311;SDS011;15572;48.810;9.148;2024-03-08T13:12:58;26.53;;;17.27;;
28311;SDS011;15572;48.810;9.148;2024-03-08T13:17:54;25.83;;;16.87;;
28311;SDS011;15572;48.810;9.148;2024-03-08T13:22:53;27.03;;;17.53;;
28311;SDS011;15572;48.810;9.148;2024-03-08T13:27:50;25.23;;;16.77;;
28311;SDS011;15572;48.810;9.148;2024-03-08T13:32:48;27.87;;;15.77;;
28311;SDS011;15572;48.810;9.148;2024-03-08T13:37:45;27.33;;;17.60;;
28311;SDS011;15572;48.810;9.148;2024-03-08T13:42:43;26.07;;;16.73;;
28311;SDS011;15572;48.810;9.148;2024-03-08T13:47:39;27.30;;;16.00;;
28311;SDS011;15572;48.810;9.148;2024-03-08T13:52:36;25.87;;;16.93;;
28311;SDS011;15572;48.810;9.148;2024-03-08T13:57:33;24.53;;;16.07;;
28311;SDS011;15572;48.810;9.148;2024-03-08T14:02:31;26.00;;;16.50;;
28311;SDS011;15572;48.810;9.148;2024-03-08T14:07:28;27.30;;;17.13;;
28311;SDS011;15572;48.810;9.148;2024-03-08T14:12:25;28.70;;;17.13;;
28311;SDS011;15572;48.810;9.148;2024-03-08T14:17:21;24.63;;;16.53;;
28311;SDS011;15572;48.810;9.148;2024-03-08T14:22:19;26.30;;;16.50;;
28311;SDS011;15572;48.810;9.148;2024-03-08T14:27:16;24.87;;;16.97;;
28311;SDS011;15572;48.810;9.148;2024-03-08T14:32:13;25.43;;;15.70;;
28311;SDS011;15572;48.810;9.148;2024-03-08T14:37:10;22.50;;;15.23;;
28311;SDS011;15572;48.810;9.148;2024-03-08T14:42:10;23.67;;;15.80;;
28311;SDS011;15572;48.810;9.148;2024-03-08T14:47:08;26.60;;;15.77;;
28311;SDS011;15572;48.810;9.148;2024-03-08T14:52:05;26.10;;;16.63;;
28311;SDS011;15572;48.810;9.148;2024-03-08T14:57:23;24.87;;;15.37;;
28311;SDS011;15572;48.810;9.148;2024-03-08T15:02:19;24.27;;;15.53;;
28311;SDS011;15572;48.810;9.148;2024-03-08T15:07:17;25.30;;;16.20;;
28311;SDS011;15572;48.810;9.148;2024-03-08T15:12:13;24.53;;;16.47;;
28311;SDS011;15572;48.810;9.148;2024-03-08T15:17:12;24.90;;;15.97;;
28311;SDS011;15572;48.810;9.148;2024-03-08T15:22:15;25.70;;;15.87;;
28311;SDS011;15572;48.810;9.148;2024-03-08T15:27:13;27.40;;;16.57;;
28311;SDS011;15572;48.810;9.148;2024-03-08T15:32:11;26.93;;;16.60;;
28311;SDS011;15572;48.810;9.148;2024-03-08T15:37:13;24.67;;;15.90;;
28311;SDS011;15572;48.810;9.148;2024-03-08T15:42:12;24.47;;;15.77;;
28311;SDS011;15572;48.810;9.148;2024-03-08T15:47:08;24.33;;;14.87;;
28311;SDS011;15572;48.810;9.148;2024-03-08T15:52:08;24.93;;;14.93;;
28311;SDS011;15572;48.810;9.148;2024-03-08T15:57:04;25.13;;;15.57;;
28311;SDS011;15572;48.810;9.148;2024-03-08T16:02:06;24.63;;;15.40;;
28311;SDS011;15572;48.810;9.148;2024-03-08T16:07:03;25.23;;;15.53;;
28311;SDS011;15572;48.810;9.148;2024-03-08T16:12:02;24.70;;;15.83;;
28311;SDS011;15572;48.810;9.148;2024-03-08T16:17:00;24.37;;;15.43;;
28311;SDS011;15572;48.810;9.148;2024-03-08T16:21:57;25.97;;;15.77;;
28311;SDS011;15572;48.810;9.148;2024-03-08T16:26:53;24.60;;;15.37;;
28311;SDS011;15572;48.810;9.148;2024-03-08T16:31:51;22.67;;;15.27;;
28311;SDS011;15572;48.810;9.148;2024-03-08T16:36:47;24.13;;;15.53;;
28311;SDS011;15572;48.810;9.148;2024-03-08T16:41:44;24.20;;;15.67;;
28311;SDS011;15572;48.810;9.148;2024-03-08T16:46:41;23.20;;;14.73;;
28311;SDS011;15572;48.810;9.148;2024-03-08T16:51:38;26.77;;;15.80;;
28311;SDS011;15572;48.810;9.148;2024-03-08T16:56:35;29.37;;;16.13;;
28311;SDS011;15572;48.810;9.148;2024-03-08T17:01:33;22.00;;;14.70;;
28311;SDS011;15572;48.810;9.148;2024-03-08T17:06:29;25.90;;;15.40;;
28311;SDS011;15572;48.810;9.148;2024-03-08T17:11:29;26.03;;;15.47;;
28311;SDS011;15572;48.810;9.148;2024-03-08T17:16:27;23.93;;;15.67;;
28311;SDS011;15572;48.810;9.148;2024-03-08T17:21:24;25.33;;;14.50;;
28311;SDS011;15572;48.810;9.148;2024-03-08T17:26:21;26.60;;;15.30;;
28311;SDS011;15572;48.810;9.148;2024-03-08T17:31:21;23.17;;;14.80;;
28311;SDS011;15572;48.810;9.148;2024-03-08T17:36:17;22.40;;;13.80;;
28311;SDS011;15572;48.810;9.148;2024-03-08T17:41:14;23.83;;;14.30;;
28311;SDS011;15572;48.810;9.148;2024-03-08T17:46:11;25.37;;;14.07;;
28311;SDS011;15572;48.810;9.148;2024-03-08T17:51:09;23.00;;;14.17;;
28311;SDS011;15572;48.810;9.148;2024-03-08T17:56:07;20.83;;;13.47;;
28311;SDS011;15572;48.810;9.148;2024-03-08T18:01:04;24.23;;;13.93;;
28311;SDS011;15572;48.810;9.148;2024-03-08T18:06:06;24.20;;;13.83;;
28311;SDS011;15572;48.810;9.148;2024-03-08T18:11:05;20.87;;;13.50;;
28311;SDS011;15572;48.810;9.148;2024-03-08T18:16:03;22.90;;;13.47;;
28311;SDS011;15572;48.810;9.148;2024-03-08T18:21:02;23.63;;;12.73;;
28311;SDS011;15572;48.810;9.148;2024-03-08T18:26:00;20.13;;;12.50;;
28311;SDS011;15572;48.810;9.148;2024-03-08T18:30:58;24.57;;;13.30;;
28311;SDS011;15572;48.810;9.148;2024-03-08T18:35:55;21.40;;;12.27;;
28311;SDS011;15572;48.810;9.148;2024-03-08T18:40:53;18.87;;;11.90;;
28311;SDS011;15572;48.810;9.148;2024-03-08T18:45:50;20.33;;;12.43;;
28311;SDS011;15572;48.810;9.148;2024-03-08T18:50:49;19.47;;;12.10;;
28311;SDS011;15572;48.810;9.148;2024-03-08T18:55:46;20.30;;;12.77;;
28311;SDS011;15572;48.810;9.148;2024-03-08T19:00:42;21.27;;;13.13;;
28311;SDS011;15572;48.810;9.148;2024-03-08T19:05:44;18.10;;;12.07;;
28311;SDS011;15572;48.810;9.148;2024-03-08T19:10:42;22.17;;;13.20;;
28311;SDS011;15572;48.810;9.148;2024-03-08T19:15:39;19.27;;;12.37;;
28311;SDS011;15572;48.810;9.148;2024-03-08T19:20:36;18.10;;;11.87;;
28311;SDS011;15572;48.810;9.148;2024-03-08T19:25:33;19.30;;;12.20;;
28311;SDS011;15572;48.810;9.148;2024-03-08T19:30:32;19.03;;;12.40;;
28311;SDS011;15572;48.810;9.148;2024-03-08T19:35:31;21.30;;;12.23;;
28311;SDS011;15572;48.810;9.148;2024-03-08T19:40:28;19.33;;;12.20;;
28311;SDS011;15572;48.810;9.148;2024-03-08T19:45:27;21.17;;;12.33;;
28311;SDS011;15572;48.810;9.148;2024-03-08T19:50:26;17.97;;;11.47;;
28311;SDS011;15572;48.810;9.148;2024-03-08T19:55:23;21.40;;;13.13;;
28311;SDS011;15572;48.810;9.148;2024-03-08T20:00:20;20.13;;;10.90;;
28311;SDS011;15572;48.810;9.148;2024-03-08T20:05:21;19.07;;;10.77;;
28311;SDS011;15572;48.810;9.148;2024-03-08T20:10:21;19.47;;;11.73;;
28311;SDS011;15572;48.810;9.148;2024-03-08T20:15:18;17.07;;;10.97;;
28311;SDS011;15572;48.810;9.148;2024-03-08T20:20:20;16.00;;;10.57;;
28311;SDS011;15572;48.810;9.148;2024-03-08T20:25:19;16.97;;;10.70;;
28311;SDS011;15572;48.810;9.148;2024-03-08T20:30:22;19.03;;;10.60;;
28311;SDS011;15572;48.810;9.148;2024-03-08T20:35:20;18.13;;;11.23;;
28311;SDS011;15572;48.810;9.148;2024-03-08T20:40:17;18.70;;;11.07;;
28311;SDS011;15572;48.810;9.148;2024-03-08T20:45:20;19.87;;;11.17;;
28311;SDS011;15572;48.810;9.148;2024-03-08T20:50:16;22.73;;;12.97;;
28311;SDS011;15572;48.810;9.148;2024-03-08T20:55:13;20.33;;;11.20;;
28311;SDS011;15572;48.810;9.148;2024-03-08T21:00:12;18.33;;;10.97;;
28311;SDS011;15572;48.810;9.148;2024-03-08T21:05:15;17.93;;;11.40;;
28311;SDS011;15572;48.810;9.148;2024-03-08T21:10:13;20.40;;;11.53;;
28311;SDS011;15572;48.810;9.148;2024-03-08T21:15:10;19.47;;;11.90;;
28311;SDS011;15572;48.810;9.148;2024-03-08T21:20:09;21.00;;;12.33;;
28311;SDS011;15572;48.810;9.148;2024-03-08T21:25:08;18.33;;;10.57;;
28311;SDS011;15572;48.810;9.148;2024-03-08T21:30:08;19.67;;;11.33;;
28311;SDS011;15572;48.810;9.148;2024-03-08T21:35:08;19.10;;;11.13;;
28311;SDS011;15572;48.810;9.148;2024-03-08T21:40:05;18.27;;;10.87;;
28311;SDS011;15572;48.810;9.148;2024-03-08T21:45:07;16.57;;;10.10;;
28311;SDS011;15572;48.810;9.148;2024-03-08T21:50:04;17.90;;;10.03;;
28311;SDS011;15572;48.810;9.148;2024-03-08T21:55:04;14.57;;;9.27;;
28311;SDS011;15572;48.810;9.148;2024-03-08T22:00:01;17.23;;;9.73;;
28311;SDS011;15572;48.810;9.148;2024-03-08T22:05:00;20.33;;;10.17;;
28311;SDS011;15572;48.810;9.148;2024-03-08T22:09:56;17.70;;;10.93;;
28311;SDS011;15572;48.810;9.148;2024-03-08T22:14:54;18.40;;;10.70;;
28311;SDS011;15572;48.810;9.148;2024-03-08T22:19:50;20.07;;;11.53;;
28311;SDS011;15572;48.810;9.148;2024-03-08T22:24:48;24.57;;;12.87;;
28311;SDS011;15572;48.810;9.148;2024-03-08T22:29:48;19.63;;;11.20;;
28311;SDS011;15572;48.810;9.148;2024-03-08T22:34:45;19.33;;;10.73;;
28311;SDS011;15572;48.810;9.148;2024-03-08T22:39:42;20.67;;;10.80;;
28311;SDS011;15572;48.810;9.148;2024-03-08T22:44:40;24.63;;;12.43;;
28311;SDS011;15572;48.810;9.148;2024-03-08T22:49:36;21.53;;;11.77;;
28311;SDS011;15572;48.810;9.148;2024-03-08T22:54:33;19.60;;;10.80;;
28311;SDS011;15572;48.810;9.148;2024-03-08T22:59:29;17.70;;;10.60;;
28311;SDS011;15572;48.810;9.148;2024-03-08T23:04:27;18.50;;;10.43;;
28311;SDS011;15572;48.810;9.148;2024-03-08T23:09:23;17.20;;;10.93;;
28311;SDS011;15572;48.810;9.148;2024-03-08T23:14:19;20.13;;;11.30;;
28311;SDS011;15572;48.810;9.148;2024-03-08T23:19:16;17.73;;;10.20;;
28311;SDS011;15572;48.810;9.148;2024-03-08T23:24:14;20.63;;;11.30;;
28311;SDS011;15572;48.810;9.148;2024-03-08T23:29:10;19.37;;;11.20;;
28311;SDS011;15572;48.810;9.148;2024-03-08T23:34:07;19.07;;;10.67;;
28311;SDS011;15572;48.810;9.148;2024-03-08T23:39:03;19.43;;;10.57;;
28311;SDS011;15572;48.810;9.148;2024-03-08T23:44:05;20.37;;;11.73;;
28311;SDS011;15572;48.810;9.148;2024-03-08T23:49:01;19.20;;;11.23;;
28311;SDS011;15572;48.810;9.148;2024-03-08T23:53:58;85.33;;;36.17;;
28311;SDS011;15572;48.810;9.148;2024-03-08T23:58:54;22.30;;;11.47;;
